sensor_id;sensor_type;location;lat;lon;timestamp;temperature;humidity
68764;DHT22;55754;52.038;5.566;2022-07-30T00:02:22;19.50;70.40
68764;DHT22;55754;52.038;5.566;2022-07-30T00:04:48;19.50;70.40
68764;DHT22;55754;52.038;5.566;2022-07-30T00:07:13;19.40;70.40
68764;DHT22;55754;52.038;5.566;2022-07-30T00:09:39;19.40;70.50
68764;DHT22;55754;52.038;5.566;2022-07-30T00:12:06;19.40;70.50
68764;DHT22;55754;52.038;5.566;2022-07-30T00:14:31;19.40;70.50
68764;DHT22;55754;52.038;5.566;2022-07-30T00:17:02;19.30;70.60
68764;DHT22;55754;52.038;5.566;2022-07-30T00:19:30;19.30;70.70
68764;DHT22;55754;52.038;5.566;2022-07-30T00:21:56;19.20;70.60
68764;DHT22;55754;52.038;5.566;2022-07-30T00:24:22;19.20;70.60
68764;DHT22;55754;52.038;5.566;2022-07-30T00:26:48;19.10;70.70
68764;DHT22;55754;52.038;5.566;2022-07-30T00:29:14;19.10;70.80
68764;DHT22;55754;52.038;5.566;2022-07-30T00:31:39;19.10;70.90
68764;DHT22;55754;52.038;5.566;2022-07-30T00:34:05;19.00;70.80
68764;DHT22;55754;52.038;5.566;2022-07-30T00:36:31;19.00;70.90
68764;DHT22;55754;52.038;5.566;2022-07-30T00:38:57;19.00;71.00
68764;DHT22;55754;52.038;5.566;2022-07-30T00:41:23;19.00;71.20
68764;DHT22;55754;52.038;5.566;2022-07-30T00:43:49;18.90;71.20
68764;DHT22;55754;52.038;5.566;2022-07-30T00:46:15;18.90;71.50
68764;DHT22;55754;52.038;5.566;2022-07-30T00:48:41;18.80;71.60
68764;DHT22;55754;52.038;5.566;2022-07-30T00:51:07;18.80;71.60
68764;DHT22;55754;52.038;5.566;2022-07-30T00:53:33;18.80;71.80
68764;DHT22;55754;52.038;5.566;2022-07-30T00:55:59;18.80;71.70
68764;DHT22;55754;52.038;5.566;2022-07-30T00:58:25;18.70;71.80
68764;DHT22;55754;52.038;5.566;2022-07-30T01:00:52;18.70;71.90
68764;DHT22;55754;52.038;5.566;2022-07-30T01:03:17;18.70;72.00
68764;DHT22;55754;52.038;5.566;2022-07-30T01:05:43;18.70;72.00
68764;DHT22;55754;52.038;5.566;2022-07-30T01:08:09;18.70;71.90
68764;DHT22;55754;52.038;5.566;2022-07-30T01:10:36;18.70;71.90
68764;DHT22;55754;52.038;5.566;2022-07-30T01:13:03;18.70;72.00
68764;DHT22;55754;52.038;5.566;2022-07-30T01:15:29;18.60;72.00
68764;DHT22;55754;52.038;5.566;2022-07-30T01:17:58;18.60;72.10
68764;DHT22;55754;52.038;5.566;2022-07-30T01:23:26;18.50;72.60
68764;DHT22;55754;52.038;5.566;2022-07-30T01:25:59;18.60;72.70
68764;DHT22;55754;52.038;5.566;2022-07-30T01:28:31;18.50;72.50
68764;DHT22;55754;52.038;5.566;2022-07-30T01:30:57;18.50;72.50
68764;DHT22;55754;52.038;5.566;2022-07-30T01:33:24;18.40;72.40
68764;DHT22;55754;52.038;5.566;2022-07-30T01:35:50;18.40;72.50
68764;DHT22;55754;52.038;5.566;2022-07-30T01:38:19;18.30;72.50
68764;DHT22;55754;52.038;5.566;2022-07-30T01:40:50;18.30;72.60
68764;DHT22;55754;52.038;5.566;2022-07-30T01:43:18;18.30;72.60
68764;DHT22;55754;52.038;5.566;2022-07-30T01:45:46;18.30;73.60
68764;DHT22;55754;52.038;5.566;2022-07-30T01:48:14;18.30;72.60
68764;DHT22;55754;52.038;5.566;2022-07-30T01:50:43;18.20;72.60
68764;DHT22;55754;52.038;5.566;2022-07-30T01:53:16;18.20;72.50
68764;DHT22;55754;52.038;5.566;2022-07-30T01:55:43;18.20;72.70
68764;DHT22;55754;52.038;5.566;2022-07-30T01:58:11;18.20;72.50
68764;DHT22;55754;52.038;5.566;2022-07-30T02:00:40;18.20;72.60
68764;DHT22;55754;52.038;5.566;2022-07-30T02:03:08;18.10;72.70
68764;DHT22;55754;52.038;5.566;2022-07-30T02:05:35;18.10;72.80
68764;DHT22;55754;52.038;5.566;2022-07-30T02:10:53;18.10;73.40
68764;DHT22;55754;52.038;5.566;2022-07-30T02:13:24;18.00;73.00
68764;DHT22;55754;52.038;5.566;2022-07-30T02:15:55;18.00;73.10
68764;DHT22;55754;52.038;5.566;2022-07-30T02:18:47;18.00;73.10
68764;DHT22;55754;52.038;5.566;2022-07-30T02:21:18;17.90;73.30
68764;DHT22;55754;52.038;5.566;2022-07-30T02:23:45;17.90;73.10
68764;DHT22;55754;52.038;5.566;2022-07-30T02:26:13;17.90;73.20
68764;DHT22;55754;52.038;5.566;2022-07-30T02:28:45;17.90;73.20
68764;DHT22;55754;52.038;5.566;2022-07-30T02:31:16;17.80;73.30
68764;DHT22;55754;52.038;5.566;2022-07-30T02:33:43;17.70;73.40
68764;DHT22;55754;52.038;5.566;2022-07-30T02:36:11;17.70;73.30
68764;DHT22;55754;52.038;5.566;2022-07-30T02:38:38;17.70;73.30
68764;DHT22;55754;52.038;5.566;2022-07-30T02:41:07;17.80;73.30
68764;DHT22;55754;52.038;5.566;2022-07-30T02:43:34;17.70;73.40
68764;DHT22;55754;52.038;5.566;2022-07-30T02:46:01;17.80;73.30
68764;DHT22;55754;52.038;5.566;2022-07-30T02:48:27;17.70;73.30
68764;DHT22;55754;52.038;5.566;2022-07-30T02:50:54;17.70;73.60
68764;DHT22;55754;52.038;5.566;2022-07-30T02:53:23;17.70;73.40
68764;DHT22;55754;52.038;5.566;2022-07-30T02:55:52;17.70;73.50
68764;DHT22;55754;52.038;5.566;2022-07-30T02:58:22;17.70;73.80
68764;DHT22;55754;52.038;5.566;2022-07-30T03:00:49;17.70;73.70
68764;DHT22;55754;52.038;5.566;2022-07-30T03:03:17;17.60;73.80
68764;DHT22;55754;52.038;5.566;2022-07-30T03:05:43;17.60;73.80
68764;DHT22;55754;52.038;5.566;2022-07-30T03:08:10;17.60;73.90
68764;DHT22;55754;52.038;5.566;2022-07-30T03:10:36;17.60;74.00
68764;DHT22;55754;52.038;5.566;2022-07-30T03:13:06;17.60;74.50
68764;DHT22;55754;52.038;5.566;2022-07-30T03:15:33;17.50;73.90
68764;DHT22;55754;52.038;5.566;2022-07-30T03:18:00;17.50;73.90
68764;DHT22;55754;52.038;5.566;2022-07-30T03:20:29;17.50;74.00
68764;DHT22;55754;52.038;5.566;2022-07-30T03:22:58;17.50;73.90
68764;DHT22;55754;52.038;5.566;2022-07-30T03:25:26;17.50;73.90
68764;DHT22;55754;52.038;5.566;2022-07-30T03:27:54;17.40;73.90
68764;DHT22;55754;52.038;5.566;2022-07-30T03:30:23;17.40;73.90
68764;DHT22;55754;52.038;5.566;2022-07-30T03:32:51;17.40;73.90
68764;DHT22;55754;52.038;5.566;2022-07-30T03:35:18;17.40;73.90
68764;DHT22;55754;52.038;5.566;2022-07-30T03:37:46;17.40;73.90
68764;DHT22;55754;52.038;5.566;2022-07-30T03:40:13;17.40;74.20
68764;DHT22;55754;52.038;5.566;2022-07-30T03:42:39;17.30;74.40
68764;DHT22;55754;52.038;5.566;2022-07-30T03:45:06;17.30;74.30
68764;DHT22;55754;52.038;5.566;2022-07-30T03:47:36;17.40;74.40
68764;DHT22;55754;52.038;5.566;2022-07-30T03:50:03;17.40;74.30
68764;DHT22;55754;52.038;5.566;2022-07-30T03:52:32;17.40;74.30
68764;DHT22;55754;52.038;5.566;2022-07-30T03:54:59;17.40;74.50
68764;DHT22;55754;52.038;5.566;2022-07-30T03:57:26;17.40;74.60
68764;DHT22;55754;52.038;5.566;2022-07-30T03:59:52;17.40;74.60
68764;DHT22;55754;52.038;5.566;2022-07-30T04:02:18;17.40;74.50
68764;DHT22;55754;52.038;5.566;2022-07-30T04:04:44;17.40;74.50
68764;DHT22;55754;52.038;5.566;2022-07-30T04:07:10;17.40;74.40
68764;DHT22;55754;52.038;5.566;2022-07-30T04:09:36;17.40;74.40
68764;DHT22;55754;52.038;5.566;2022-07-30T04:12:02;17.30;75.20
68764;DHT22;55754;52.038;5.566;2022-07-30T04:14:41;17.30;74.30
68764;DHT22;55754;52.038;5.566;2022-07-30T04:17:12;17.30;74.50
68764;DHT22;55754;52.038;5.566;2022-07-30T04:19:47;17.30;74.50
68764;DHT22;55754;52.038;5.566;2022-07-30T04:22:17;17.30;74.80
68764;DHT22;55754;52.038;5.566;2022-07-30T04:24:45;17.30;74.40
68764;DHT22;55754;52.038;5.566;2022-07-30T04:27:13;17.30;74.50
68764;DHT22;55754;52.038;5.566;2022-07-30T04:29:39;17.30;74.50
68764;DHT22;55754;52.038;5.566;2022-07-30T04:32:07;17.30;74.50
68764;DHT22;55754;52.038;5.566;2022-07-30T04:34:34;17.30;74.60
68764;DHT22;55754;52.038;5.566;2022-07-30T04:37:00;17.30;74.60
68764;DHT22;55754;52.038;5.566;2022-07-30T04:39:26;17.20;74.60
68764;DHT22;55754;52.038;5.566;2022-07-30T04:41:51;17.30;74.70
68764;DHT22;55754;52.038;5.566;2022-07-30T04:44:18;17.30;74.80
68764;DHT22;55754;52.038;5.566;2022-07-30T04:46:44;17.30;74.70
68764;DHT22;55754;52.038;5.566;2022-07-30T04:49:11;17.30;74.70
68764;DHT22;55754;52.038;5.566;2022-07-30T04:51:38;17.30;74.80
68764;DHT22;55754;52.038;5.566;2022-07-30T04:54:08;17.30;74.70
68764;DHT22;55754;52.038;5.566;2022-07-30T04:56:36;17.30;74.90
68764;DHT22;55754;52.038;5.566;2022-07-30T04:59:03;17.30;75.10
68764;DHT22;55754;52.038;5.566;2022-07-30T05:01:33;17.30;75.00
68764;DHT22;55754;52.038;5.566;2022-07-30T05:04:00;17.30;75.20
68764;DHT22;55754;52.038;5.566;2022-07-30T05:06:27;17.30;75.10
68764;DHT22;55754;52.038;5.566;2022-07-30T05:08:53;17.30;75.10
68764;DHT22;55754;52.038;5.566;2022-07-30T05:11:19;17.40;75.10
68764;DHT22;55754;52.038;5.566;2022-07-30T05:13:47;17.40;75.20
68764;DHT22;55754;52.038;5.566;2022-07-30T05:16:13;17.40;75.20
68764;DHT22;55754;52.038;5.566;2022-07-30T05:18:39;17.40;75.10
68764;DHT22;55754;52.038;5.566;2022-07-30T05:21:05;17.50;75.10
68764;DHT22;55754;52.038;5.566;2022-07-30T05:23:31;17.50;75.10
68764;DHT22;55754;52.038;5.566;2022-07-30T05:25:57;17.60;75.00
68764;DHT22;55754;52.038;5.566;2022-07-30T05:28:22;17.70;74.90
68764;DHT22;55754;52.038;5.566;2022-07-30T05:30:51;17.70;74.70
68764;DHT22;55754;52.038;5.566;2022-07-30T05:33:17;17.80;74.80
68764;DHT22;55754;52.038;5.566;2022-07-30T05:35:42;17.80;74.70
68764;DHT22;55754;52.038;5.566;2022-07-30T05:38:08;17.90;74.60
68764;DHT22;55754;52.038;5.566;2022-07-30T05:40:34;17.90;74.50
68764;DHT22;55754;52.038;5.566;2022-07-30T05:42:59;18.00;74.40
68764;DHT22;55754;52.038;5.566;2022-07-30T05:45:25;18.10;74.40
68764;DHT22;55754;52.038;5.566;2022-07-30T05:47:51;18.10;74.40
68764;DHT22;55754;52.038;5.566;2022-07-30T05:50:16;18.20;74.40
68764;DHT22;55754;52.038;5.566;2022-07-30T05:52:42;18.20;74.20
68764;DHT22;55754;52.038;5.566;2022-07-30T05:55:08;18.30;74.20
68764;DHT22;55754;52.038;5.566;2022-07-30T05:57:35;18.40;74.30
68764;DHT22;55754;52.038;5.566;2022-07-30T06:00:03;18.50;73.90
68764;DHT22;55754;52.038;5.566;2022-07-30T06:02:30;18.50;73.70
68764;DHT22;55754;52.038;5.566;2022-07-30T06:04:55;18.60;73.60
68764;DHT22;55754;52.038;5.566;2022-07-30T06:07:21;18.70;73.70
68764;DHT22;55754;52.038;5.566;2022-07-30T06:09:47;18.70;73.40
68764;DHT22;55754;52.038;5.566;2022-07-30T06:12:13;18.90;73.10
68764;DHT22;55754;52.038;5.566;2022-07-30T06:14:38;19.00;73.10
68764;DHT22;55754;52.038;5.566;2022-07-30T06:17:04;19.10;72.70
68764;DHT22;55754;52.038;5.566;2022-07-30T06:19:30;19.30;72.20
68764;DHT22;55754;52.038;5.566;2022-07-30T06:21:55;19.40;71.90
68764;DHT22;55754;52.038;5.566;2022-07-30T06:24:21;19.60;72.00
68764;DHT22;55754;52.038;5.566;2022-07-30T06:26:47;19.70;71.20
68764;DHT22;55754;52.038;5.566;2022-07-30T06:29:12;19.80;70.80
68764;DHT22;55754;52.038;5.566;2022-07-30T06:31:38;20.00;70.40
68764;DHT22;55754;52.038;5.566;2022-07-30T06:34:05;20.20;70.10
68764;DHT22;55754;52.038;5.566;2022-07-30T06:36:31;20.30;69.60
68764;DHT22;55754;52.038;5.566;2022-07-30T06:38:56;20.40;69.00
68764;DHT22;55754;52.038;5.566;2022-07-30T06:41:22;20.50;68.70
68764;DHT22;55754;52.038;5.566;2022-07-30T06:43:47;20.70;68.40
68764;DHT22;55754;52.038;5.566;2022-07-30T06:46:13;20.80;67.90
68764;DHT22;55754;52.038;5.566;2022-07-30T06:48:39;20.90;67.60
68764;DHT22;55754;52.038;5.566;2022-07-30T06:51:06;20.90;67.30
68764;DHT22;55754;52.038;5.566;2022-07-30T06:53:32;21.00;67.30
68764;DHT22;55754;52.038;5.566;2022-07-30T06:55:58;21.10;66.90
68764;DHT22;55754;52.038;5.566;2022-07-30T06:58:24;21.20;66.70
68764;DHT22;55754;52.038;5.566;2022-07-30T07:00:49;21.30;66.30
68764;DHT22;55754;52.038;5.566;2022-07-30T07:03:15;21.50;65.60
68764;DHT22;55754;52.038;5.566;2022-07-30T07:05:41;21.60;65.30
68764;DHT22;55754;52.038;5.566;2022-07-30T07:08:07;21.80;64.80
68764;DHT22;55754;52.038;5.566;2022-07-30T07:10:32;21.80;63.70
68764;DHT22;55754;52.038;5.566;2022-07-30T07:12:58;21.90;63.30
68764;DHT22;55754;52.038;5.566;2022-07-30T07:15:25;21.90;63.30
68764;DHT22;55754;52.038;5.566;2022-07-30T07:17:51;21.90;63.10
68764;DHT22;55754;52.038;5.566;2022-07-30T07:20:17;22.00;62.80
68764;DHT22;55754;52.038;5.566;2022-07-30T07:22:42;22.10;62.30
68764;DHT22;55754;52.038;5.566;2022-07-30T07:25:09;22.20;62.00
68764;DHT22;55754;52.038;5.566;2022-07-30T07:27:36;22.30;61.20
68764;DHT22;55754;52.038;5.566;2022-07-30T07:30:03;22.50;60.70
68764;DHT22;55754;52.038;5.566;2022-07-30T07:32:29;22.70;60.00
68764;DHT22;55754;52.038;5.566;2022-07-30T07:34:54;22.80;59.10
68764;DHT22;55754;52.038;5.566;2022-07-30T07:37:20;23.00;58.60
68764;DHT22;55754;52.038;5.566;2022-07-30T07:39:46;22.90;58.00
68764;DHT22;55754;52.038;5.566;2022-07-30T07:42:11;23.00;57.50
68764;DHT22;55754;52.038;5.566;2022-07-30T07:44:37;23.10;57.20
68764;DHT22;55754;52.038;5.566;2022-07-30T07:47:03;23.20;56.80
68764;DHT22;55754;52.038;5.566;2022-07-30T07:49:28;23.10;56.30
68764;DHT22;55754;52.038;5.566;2022-07-30T07:51:55;23.00;56.50
68764;DHT22;55754;52.038;5.566;2022-07-30T07:54:20;22.70;57.20
68764;DHT22;55754;52.038;5.566;2022-07-30T07:56:46;23.00;56.40
68764;DHT22;55754;52.038;5.566;2022-07-30T07:59:13;23.30;55.90
68764;DHT22;55754;52.038;5.566;2022-07-30T08:01:38;23.30;55.10
68764;DHT22;55754;52.038;5.566;2022-07-30T08:04:04;23.50;54.90
68764;DHT22;55754;52.038;5.566;2022-07-30T08:06:30;23.80;54.10
68764;DHT22;55754;52.038;5.566;2022-07-30T08:08:55;24.10;53.70
68764;DHT22;55754;52.038;5.566;2022-07-30T08:11:21;24.20;53.50
68764;DHT22;55754;52.038;5.566;2022-07-30T08:13:47;24.30;52.70
68764;DHT22;55754;52.038;5.566;2022-07-30T08:16:12;24.20;51.90
68764;DHT22;55754;52.038;5.566;2022-07-30T08:18:39;24.50;51.90
68764;DHT22;55754;52.038;5.566;2022-07-30T08:21:05;24.70;51.20
68764;DHT22;55754;52.038;5.566;2022-07-30T08:23:30;25.10;50.60
68764;DHT22;55754;52.038;5.566;2022-07-30T08:25:57;25.30;50.10
68764;DHT22;55754;52.038;5.566;2022-07-30T08:28:23;25.60;50.00
68764;DHT22;55754;52.038;5.566;2022-07-30T08:30:49;25.50;49.50
68764;DHT22;55754;52.038;5.566;2022-07-30T08:33:15;25.40;49.40
68764;DHT22;55754;52.038;5.566;2022-07-30T08:35:41;25.30;49.20
68764;DHT22;55754;52.038;5.566;2022-07-30T08:38:07;25.30;49.00
68764;DHT22;55754;52.038;5.566;2022-07-30T08:40:33;25.40;48.80
68764;DHT22;55754;52.038;5.566;2022-07-30T08:43:04;25.60;48.60
68764;DHT22;55754;52.038;5.566;2022-07-30T08:45:31;25.60;47.80
68764;DHT22;55754;52.038;5.566;2022-07-30T08:47:59;25.80;47.50
68764;DHT22;55754;52.038;5.566;2022-07-30T08:50:26;25.70;47.10
68764;DHT22;55754;52.038;5.566;2022-07-30T08:52:54;25.60;47.40
68764;DHT22;55754;52.038;5.566;2022-07-30T08:55:23;25.60;47.60
68764;DHT22;55754;52.038;5.566;2022-07-30T08:57:49;25.60;47.70
68764;DHT22;55754;52.038;5.566;2022-07-30T09:00:15;25.60;47.50
68764;DHT22;55754;52.038;5.566;2022-07-30T09:02:41;25.70;46.30
68764;DHT22;55754;52.038;5.566;2022-07-30T09:05:08;25.70;46.40
68764;DHT22;55754;52.038;5.566;2022-07-30T09:07:35;25.70;46.40
68764;DHT22;55754;52.038;5.566;2022-07-30T09:10:01;25.60;46.40
68764;DHT22;55754;52.038;5.566;2022-07-30T09:20:23;25.20;45.90
68764;DHT22;55754;52.038;5.566;2022-07-30T09:22:53;25.00;45.80
68764;DHT22;55754;52.038;5.566;2022-07-30T09:25:39;24.80;45.80
68764;DHT22;55754;52.038;5.566;2022-07-30T09:28:07;24.80;46.10
68764;DHT22;55754;52.038;5.566;2022-07-30T09:30:47;24.80;47.00
68764;DHT22;55754;52.038;5.566;2022-07-30T09:33:13;24.50;47.40
68764;DHT22;55754;52.038;5.566;2022-07-30T09:35:40;24.40;48.10
68764;DHT22;55754;52.038;5.566;2022-07-30T09:38:06;24.50;48.00
68764;DHT22;55754;52.038;5.566;2022-07-30T09:40:32;24.40;47.00
68764;DHT22;55754;52.038;5.566;2022-07-30T09:43:07;24.40;46.10
68764;DHT22;55754;52.038;5.566;2022-07-30T09:45:34;24.30;45.70
68764;DHT22;55754;52.038;5.566;2022-07-30T09:48:01;24.30;46.00
68764;DHT22;55754;52.038;5.566;2022-07-30T09:50:27;24.20;46.10
68764;DHT22;55754;52.038;5.566;2022-07-30T09:52:53;24.30;46.70
68764;DHT22;55754;52.038;5.566;2022-07-30T09:55:34;24.40;47.00
68764;DHT22;55754;52.038;5.566;2022-07-30T09:58:05;24.40;47.20
68764;DHT22;55754;52.038;5.566;2022-07-30T10:00:34;24.30;47.20
68764;DHT22;55754;52.038;5.566;2022-07-30T10:03:13;24.30;47.40
68764;DHT22;55754;52.038;5.566;2022-07-30T10:05:48;24.40;47.70
68764;DHT22;55754;52.038;5.566;2022-07-30T10:08:14;24.50;47.90
68764;DHT22;55754;52.038;5.566;2022-07-30T10:10:40;24.50;47.80
68764;DHT22;55754;52.038;5.566;2022-07-30T10:13:06;24.50;47.50
68764;DHT22;55754;52.038;5.566;2022-07-30T10:15:34;24.40;46.90
68764;DHT22;55754;52.038;5.566;2022-07-30T10:18:02;24.40;47.60
68764;DHT22;55754;52.038;5.566;2022-07-30T10:20:29;24.50;47.50
68764;DHT22;55754;52.038;5.566;2022-07-30T10:22:55;24.30;47.10
68764;DHT22;55754;52.038;5.566;2022-07-30T10:25:23;24.30;47.50
68764;DHT22;55754;52.038;5.566;2022-07-30T10:27:49;24.30;47.60
68764;DHT22;55754;52.038;5.566;2022-07-30T10:30:16;24.40;47.70
68764;DHT22;55754;52.038;5.566;2022-07-30T10:32:42;24.50;47.70
68764;DHT22;55754;52.038;5.566;2022-07-30T10:35:10;24.50;47.70
68764;DHT22;55754;52.038;5.566;2022-07-30T10:37:40;24.40;47.40
68764;DHT22;55754;52.038;5.566;2022-07-30T10:40:13;24.60;47.40
68764;DHT22;55754;52.038;5.566;2022-07-30T10:42:51;24.60;47.50
68764;DHT22;55754;52.038;5.566;2022-07-30T10:48:05;24.70;47.20
68764;DHT22;55754;52.038;5.566;2022-07-30T10:50:31;24.70;47.00
68764;DHT22;55754;52.038;5.566;2022-07-30T10:52:58;24.80;46.90
68764;DHT22;55754;52.038;5.566;2022-07-30T10:55:32;24.80;46.70
68764;DHT22;55754;52.038;5.566;2022-07-30T10:58:12;24.90;46.70
68764;DHT22;55754;52.038;5.566;2022-07-30T11:03:23;25.00;45.40
68764;DHT22;55754;52.038;5.566;2022-07-30T11:05:51;25.00;46.20
68764;DHT22;55754;52.038;5.566;2022-07-30T11:08:40;25.30;45.60
68764;DHT22;55754;52.038;5.566;2022-07-30T11:13:59;25.10;43.70
68764;DHT22;55754;52.038;5.566;2022-07-30T11:19:10;25.10;43.80
68764;DHT22;55754;52.038;5.566;2022-07-30T11:21:41;25.20;43.20
68764;DHT22;55754;52.038;5.566;2022-07-30T11:24:45;25.20;44.00
68764;DHT22;55754;52.038;5.566;2022-07-30T11:27:34;25.20;43.50
68764;DHT22;55754;52.038;5.566;2022-07-30T11:30:02;25.30;43.60
68764;DHT22;55754;52.038;5.566;2022-07-30T11:32:34;25.40;43.90
68764;DHT22;55754;52.038;5.566;2022-07-30T11:40:29;25.60;42.70
68764;DHT22;55754;52.038;5.566;2022-07-30T11:43:33;25.70;43.80
68764;DHT22;55754;52.038;5.566;2022-07-30T11:48:37;25.70;43.10
68764;DHT22;55754;52.038;5.566;2022-07-30T11:51:05;25.80;43.30
68764;DHT22;55754;52.038;5.566;2022-07-30T11:53:31;25.80;43.50
68764;DHT22;55754;52.038;5.566;2022-07-30T11:55:59;26.00;43.70
68764;DHT22;55754;52.038;5.566;2022-07-30T11:58:35;26.10;43.70
68764;DHT22;55754;52.038;5.566;2022-07-30T12:01:13;26.20;43.00
68764;DHT22;55754;52.038;5.566;2022-07-30T12:03:40;26.20;42.90
68764;DHT22;55754;52.038;5.566;2022-07-30T12:06:09;26.20;43.10
68764;DHT22;55754;52.038;5.566;2022-07-30T12:08:45;26.20;42.60
68764;DHT22;55754;52.038;5.566;2022-07-30T12:11:11;26.20;42.60
68764;DHT22;55754;52.038;5.566;2022-07-30T12:13:39;26.20;42.80
68764;DHT22;55754;52.038;5.566;2022-07-30T12:16:15;26.20;42.80
68764;DHT22;55754;52.038;5.566;2022-07-30T12:18:41;26.30;42.50
68764;DHT22;55754;52.038;5.566;2022-07-30T12:21:08;26.40;42.30
68764;DHT22;55754;52.038;5.566;2022-07-30T12:23:37;26.50;42.40
68764;DHT22;55754;52.038;5.566;2022-07-30T12:26:03;26.60;42.30
68764;DHT22;55754;52.038;5.566;2022-07-30T12:28:31;26.80;42.10
68764;DHT22;55754;52.038;5.566;2022-07-30T12:30:58;26.80;41.70
68764;DHT22;55754;52.038;5.566;2022-07-30T12:33:25;26.70;41.30
68764;DHT22;55754;52.038;5.566;2022-07-30T12:35:54;26.60;41.20
68764;DHT22;55754;52.038;5.566;2022-07-30T12:38:22;26.50;41.10
68764;DHT22;55754;52.038;5.566;2022-07-30T12:41:01;26.40;41.10
68764;DHT22;55754;52.038;5.566;2022-07-30T12:43:59;26.40;41.20
68764;DHT22;55754;52.038;5.566;2022-07-30T12:46:26;26.40;41.60
68764;DHT22;55754;52.038;5.566;2022-07-30T12:48:57;26.40;41.90
68764;DHT22;55754;52.038;5.566;2022-07-30T12:51:25;26.40;41.80
68764;DHT22;55754;52.038;5.566;2022-07-30T12:53:52;26.50;41.70
68764;DHT22;55754;52.038;5.566;2022-07-30T12:56:21;26.50;41.30
68764;DHT22;55754;52.038;5.566;2022-07-30T12:58:47;26.60;41.60
68764;DHT22;55754;52.038;5.566;2022-07-30T13:01:13;26.70;41.60
68764;DHT22;55754;52.038;5.566;2022-07-30T13:03:39;26.70;41.20
68764;DHT22;55754;52.038;5.566;2022-07-30T13:06:19;26.70;40.60
68764;DHT22;55754;52.038;5.566;2022-07-30T13:08:53;26.70;40.10
68764;DHT22;55754;52.038;5.566;2022-07-30T13:11:21;26.60;40.40
68764;DHT22;55754;52.038;5.566;2022-07-30T13:13:47;26.50;41.10
68764;DHT22;55754;52.038;5.566;2022-07-30T13:16:13;26.60;41.20
68764;DHT22;55754;52.038;5.566;2022-07-30T13:18:39;26.70;40.80
68764;DHT22;55754;52.038;5.566;2022-07-30T13:21:06;26.70;40.50
68764;DHT22;55754;52.038;5.566;2022-07-30T13:23:34;26.60;40.30
68764;DHT22;55754;52.038;5.566;2022-07-30T13:26:00;26.70;40.60
68764;DHT22;55754;52.038;5.566;2022-07-30T13:28:26;26.70;41.80
68764;DHT22;55754;52.038;5.566;2022-07-30T13:30:52;26.60;40.70
68764;DHT22;55754;52.038;5.566;2022-07-30T13:33:18;26.60;40.70
68764;DHT22;55754;52.038;5.566;2022-07-30T13:35:43;26.70;41.50
68764;DHT22;55754;52.038;5.566;2022-07-30T13:38:09;26.80;41.40
68764;DHT22;55754;52.038;5.566;2022-07-30T13:40:38;26.80;40.90
68764;DHT22;55754;52.038;5.566;2022-07-30T13:43:04;26.90;40.80
68764;DHT22;55754;52.038;5.566;2022-07-30T13:45:29;27.00;40.90
68764;DHT22;55754;52.038;5.566;2022-07-30T13:47:55;27.00;40.60
68764;DHT22;55754;52.038;5.566;2022-07-30T13:50:21;27.00;40.20
68764;DHT22;55754;52.038;5.566;2022-07-30T13:52:47;27.00;41.10
68764;DHT22;55754;52.038;5.566;2022-07-30T13:55:13;27.10;40.20
68764;DHT22;55754;52.038;5.566;2022-07-30T13:57:39;27.10;39.70
68764;DHT22;55754;52.038;5.566;2022-07-30T14:00:06;27.10;39.50
68764;DHT22;55754;52.038;5.566;2022-07-30T14:02:32;27.10;39.90
68764;DHT22;55754;52.038;5.566;2022-07-30T14:04:59;27.10;39.40
68764;DHT22;55754;52.038;5.566;2022-07-30T14:07:25;27.00;39.90
68764;DHT22;55754;52.038;5.566;2022-07-30T14:09:50;26.90;40.20
68764;DHT22;55754;52.038;5.566;2022-07-30T14:12:16;26.90;39.80
68764;DHT22;55754;52.038;5.566;2022-07-30T14:14:42;26.90;41.20
68764;DHT22;55754;52.038;5.566;2022-07-30T14:17:08;26.90;39.90
68764;DHT22;55754;52.038;5.566;2022-07-30T14:19:33;26.90;39.50
68764;DHT22;55754;52.038;5.566;2022-07-30T14:21:59;26.80;39.50
68764;DHT22;55754;52.038;5.566;2022-07-30T14:24:29;26.90;39.60
68764;DHT22;55754;52.038;5.566;2022-07-30T14:26:55;26.90;39.40
68764;DHT22;55754;52.038;5.566;2022-07-30T14:29:21;26.90;39.50
68764;DHT22;55754;52.038;5.566;2022-07-30T14:31:47;26.80;39.50
68764;DHT22;55754;52.038;5.566;2022-07-30T14:34:12;26.90;39.70
68764;DHT22;55754;52.038;5.566;2022-07-30T14:36:38;26.80;39.70
68764;DHT22;55754;52.038;5.566;2022-07-30T14:39:04;26.80;39.90
68764;DHT22;55754;52.038;5.566;2022-07-30T14:41:30;26.80;40.30
68764;DHT22;55754;52.038;5.566;2022-07-30T14:43:56;26.80;39.80
68764;DHT22;55754;52.038;5.566;2022-07-30T14:46:22;26.80;39.60
68764;DHT22;55754;52.038;5.566;2022-07-30T14:48:48;26.80;39.30
68764;DHT22;55754;52.038;5.566;2022-07-30T14:51:15;26.70;39.10
68764;DHT22;55754;52.038;5.566;2022-07-30T14:53:40;26.70;39.50
68764;DHT22;55754;52.038;5.566;2022-07-30T14:56:06;26.80;39.70
68764;DHT22;55754;52.038;5.566;2022-07-30T14:58:33;26.80;39.10
68764;DHT22;55754;52.038;5.566;2022-07-30T15:00:58;26.70;39.10
68764;DHT22;55754;52.038;5.566;2022-07-30T15:03:24;26.70;39.30
68764;DHT22;55754;52.038;5.566;2022-07-30T15:05:50;26.60;38.90
68764;DHT22;55754;52.038;5.566;2022-07-30T15:08:16;26.50;39.10
68764;DHT22;55754;52.038;5.566;2022-07-30T15:10:42;26.50;39.50
68764;DHT22;55754;52.038;5.566;2022-07-30T15:13:07;26.30;39.20
68764;DHT22;55754;52.038;5.566;2022-07-30T15:15:33;26.30;39.30
68764;DHT22;55754;52.038;5.566;2022-07-30T15:17:59;26.20;39.00
68764;DHT22;55754;52.038;5.566;2022-07-30T15:20:25;26.20;39.50
68764;DHT22;55754;52.038;5.566;2022-07-30T15:22:51;26.20;39.50
68764;DHT22;55754;52.038;5.566;2022-07-30T15:25:16;26.30;39.60
68764;DHT22;55754;52.038;5.566;2022-07-30T15:27:42;26.30;39.90
68764;DHT22;55754;52.038;5.566;2022-07-30T15:30:08;26.30;39.90
68764;DHT22;55754;52.038;5.566;2022-07-30T15:32:34;26.30;39.90
68764;DHT22;55754;52.038;5.566;2022-07-30T15:34:59;26.30;39.70
68764;DHT22;55754;52.038;5.566;2022-07-30T15:37:25;26.30;39.80
68764;DHT22;55754;52.038;5.566;2022-07-30T15:39:52;26.20;39.80
68764;DHT22;55754;52.038;5.566;2022-07-30T15:42:18;26.20;39.50
68764;DHT22;55754;52.038;5.566;2022-07-30T15:44:43;26.20;39.80
68764;DHT22;55754;52.038;5.566;2022-07-30T15:47:09;26.20;40.20
68764;DHT22;55754;52.038;5.566;2022-07-30T15:49:35;26.30;40.40
68764;DHT22;55754;52.038;5.566;2022-07-30T15:52:00;26.30;40.30
68764;DHT22;55754;52.038;5.566;2022-07-30T15:54:26;26.30;40.20
68764;DHT22;55754;52.038;5.566;2022-07-30T15:56:53;26.30;40.30
68764;DHT22;55754;52.038;5.566;2022-07-30T15:59:19;26.30;40.10
68764;DHT22;55754;52.038;5.566;2022-07-30T16:01:46;26.20;40.00
68764;DHT22;55754;52.038;5.566;2022-07-30T16:04:13;26.10;39.60
68764;DHT22;55754;52.038;5.566;2022-07-30T16:06:39;26.10;39.70